Terminal Aerodrome Forecast
Issued by NWS Amarillo, TX

Home | Current Version | Previous Version | Text Only | Print | Product List | Glossary On
Versions: 1 2 3 4 5 6 7 8 9 10 11 12 13 14
253
FTUS44 KAMA 132320
TAFGUY
TAF
KGUY 132320Z 1400/1424 10010KT P6SM BKN300
     FM140800 35016G26KT P6SM BKN300
     FM141800 01008KT P6SM SCT300=

USA.gov is the U.S. government's official web portal to all federal, state and local government web resources and services.